Station info - map view · info · telemetry · weather · raw · status · beacons · messages · bulletins · browse · moving · my account
Callsign, ship name or locator: Clear       
It is possible to search using wildcards (*?) after a prefix. Example: OH*
APRS station KN6JUQ-14 - show graphs
Map loading...
Comment: 442.075MHz I monitor carlaradio.net
Mic-E message: En route
Location: 37°47.28' N 121°18.21' W - locator CM97IS39NC - show map - static map
2.8 miles Southwest bearing 211° from Lathrop, San Joaquin County, California, United States [?]
7.4 miles Northeast bearing 63° from Tracy, San Joaquin County, California, United States
44.8 miles Northeast bearing 46° from San Jose, Santa Clara County, California, United States
60.9 miles East bearing 89° from San Francisco, San Francisco County, California, United States
Last position: 2021-03-02 12:01:23 EST (1m39s ago)
2021-03-02 09:01:23 PST local time at Lathrop, United States [?]
Altitude: 30 ft
Course: 237°
Speed: 61 MPH
Device: Kenwood: TM-D710 (rig)
Last path: KN6JUQ-14>SW4WRX via WIDE1-1,WIDE2-1,qAR,WA6ODP-4 (good)
Positions stored: 17236
Packet rate: 208 seconds between packets on average during 4568 seconds.
Other SSIDs: KN6JUQ KN6JUQ-1 KN6JUQ-10 KN6JUQ-2 KN6JUQ-3 KN6JUQ-5 KN6JUQ-7 KN6JUQ-8 KN6JUQ-9
Stations near current position of KN6JUQ-14 - show more
callsign distance last heard - EST      callsign distance last heard - EST
KE6ZQH-91.4 miles 49°2021-02-16 13:40:12 KI6IKQ3.3 miles 351°2021-03-02 11:45:37
K6MAN-14.9 miles 85°2021-03-02 11:50:37 KC6WPK-95.0 miles 228°2021-02-14 13:49:04
K6PKL5.4 miles 75°2021-03-02 05:12:21 K6PKL-25.4 miles 75°2021-03-02 12:02:19
KM6IRY-N5.5 miles 72°2021-03-02 11:50:50 KM6IRY-R5.5 miles 72°2021-02-03 06:05:59
KM6IRY A5.5 miles 72°2021-03-02 11:50:45 KM6IRY-A5.5 miles 72°2021-03-02 11:50:55
KK6GFO-N7.5 miles 244°2021-02-19 19:08:29 KJ6GKC7.8 miles 230°2021-02-28 22:28:15
K7FED7.9 miles 231°2021-03-02 11:55:18 K7FED-108.0 miles 231°2021-03-02 11:49:42
KJ6PKX-98.0 miles 231°2021-02-19 14:36:33 K7FED-98.0 miles 231°2021-03-01 15:24:51
CW18928.0 miles 221°2021-03-02 12:00:23 W6QWU-18.8 miles 250°2021-02-22 23:10:47
KK6GG8.9 miles 252°2021-03-02 00:30:07 KM6JAL B9.1 miles 238°2021-02-22 23:11:19
Stations which heard KN6JUQ-14 directly on radio –
callsign pkts first heard - EST last heard longest (tx => rx) longest at - EST
W6BXN-3 11 2021-03-01 20:25:34 2021-03-02 01:53:54 CM97MO > CM97XM 49.5 miles 95° 2021-03-02 01:53:54
K6IXA-3 28 2021-03-01 20:22:07 2021-03-02 01:33:47 CM97OK > DM06NR 115.4 miles 114° 2021-03-01 20:22:07
W6CX-3 74 2021-03-01 14:50:46 2021-03-02 12:01:24 CM97QI > CM97BV 76.9 miles 299° 2021-03-02 01:29:40
RANCHO 6 2021-03-01 15:01:24 2021-03-01 18:05:40 CM98DQ > CM98QR 58.8 miles 86° 2021-03-01 15:42:12
K6FGA-1 19 2021-03-01 14:49:05 2021-03-02 11:20:05 CM97KS > CM99MF 103.3 miles 5° 2021-03-02 11:20:05
K6CDF-5 7 2021-03-01 14:50:45 2021-03-01 16:26:49 CM98JM > CM88PU 84.1 miles 288° 2021-03-01 16:26:49
WA6ODP-4 9 2021-03-01 18:50:27 2021-03-02 12:01:23 CM97KQ > CM97CT 39.2 miles 281° 2021-03-02 02:40:21
K6CDF-8 4 2021-03-01 15:01:54 2021-03-01 17:04:50 CM98MI > CM89SC 97.0 miles 302° 2021-03-01 17:04:50
K7FED-1 81 2021-03-01 14:57:14 2021-03-02 12:01:32 CM98DQ > CM97FP 70.9 miles 174° 2021-03-01 14:57:14
ALDER 1 2021-03-01 16:41:46 2021-03-01 16:41:46 CM98LL > CM98TR 43.6 miles 65° 2021-03-01 16:41:46
KQ6DI-4 2 2021-03-01 16:47:20 2021-03-01 17:45:41 CM98LK > CM98IG 19.1 miles 230° 2021-03-01 16:47:20
W6SRR-3 9 2021-03-01 16:57:15 2021-03-01 18:27:09 CM98MI > CM97AO 74.1 miles 226° 2021-03-01 17:05:19
N6JWT-8 11 2021-03-01 16:02:44 2021-03-02 01:26:24 CM98FN > CM98TA 72.7 miles 121° 2021-03-01 16:02:44
KO6KL-10 6 2021-03-01 19:57:29 2021-03-02 02:59:11 CM97NL > CM97KR 20.5 miles 322° 2021-03-02 01:43:32
GAPGTE 4 2021-03-01 16:03:13 2021-03-01 16:11:29 CM98HN > CM98GM 6.4 miles 253° 2021-03-01 16:11:29
WA6ODP-2 3 2021-03-01 17:42:39 2021-03-01 18:14:55 CM98KE > CM97FN 49.7 miles 210° 2021-03-01 17:42:39
KO6KL-1 62 2021-03-01 18:08:49 2021-03-02 11:58:51 CM98JB > CM97KR 23.4 miles 167° 2021-03-01 18:08:49
GTOWN 6 2021-03-01 14:49:03 2021-03-01 15:53:31 CM98DQ > CM98NW 46.6 miles 68° 2021-03-01 14:57:05
SHAVER 20 2021-03-01 20:18:52 2021-03-02 01:37:04 CM97OK > DM07IC 85.1 miles 106° 2021-03-01 20:18:52
N6VYT-6 2 2021-03-02 00:11:42 2021-03-02 00:29:46 CM96XX > DM06JM 57.4 miles 123° 2021-03-02 00:29:46
AB0OO-1 12 2021-03-01 16:20:19 2021-03-01 17:30:15 CM98MH > CM98KP 25.2 miles 347° 2021-03-01 17:30:15
W6SCR-5 2 2021-03-01 15:00:55 2021-03-01 16:20:57 CM98IM > CM89PK 96.3 miles 311° 2021-03-01 16:20:57
KG6WUN-1 3 2021-03-01 15:54:02 2021-03-01 16:00:16 CM98FN > CM98FP 4.1 miles 332° 2021-03-01 16:00:16

Only position packets which were originated by the station are shown here. The range statistics show some extra long hops, because some digipeaters do not correctly add themselves to the digipeater path. Please check the raw packets.
About this site
This page shows real-time information collected from the Automatic Position Reporting System Internet network (APRS-IS). APRS is used by amateur (ham) radio operators to transmit real-time position information, weather data, telemetry and messages over the radio. A vehicle equipped with a GPS receiver, a VHF transmitter or HF transceiver and a small computer device called a tracker transmits it's location, speed and course in a small data packet, which is then received by a nearby iGate receiving site which forwards the packet on the Internet. Systems connected to the Internet can send information on the APRS-IS without a radio transmitter, or collect and display information transmitted anywhere in the world.
User guide · FAQ · Blog · Discussion group · Linking to aprs.fi · AIS sites · Service status · Database statistics · Advertising on aprs.fi · Technical details · API · Change log · Planned changes · Credits and thanks · Terms Of Service · iPhone/iPad APRS